sensor_id;sensor_type;location;lat;lon;timestamp;P1;durP1;ratioP1;P2;durP2;ratioP2
53670;SDS011;39571;48.612;8.088;2022-11-11T08:47:58;10.18;;;7.80;;
53670;SDS011;39571;48.612;8.088;2022-11-11T08:50:24;10.35;;;7.55;;
53670;SDS011;39571;48.612;8.088;2022-11-11T08:52:50;7.20;;;6.07;;
53670;SDS011;39571;48.612;8.088;2022-11-11T08:55:16;7.60;;;6.38;;
53670;SDS011;39571;48.612;8.088;2022-11-11T08:57:42;6.80;;;6.10;;
53670;SDS011;39571;48.612;8.088;2022-11-11T09:00:08;6.53;;;5.82;;
53670;SDS011;39571;48.612;8.088;2022-11-11T09:02:34;6.20;;;5.57;;
53670;SDS011;39571;48.612;8.088;2022-11-11T09:04:59;6.85;;;5.53;;
53670;SDS011;39571;48.612;8.088;2022-11-11T09:07:25;6.30;;;5.50;;
53670;SDS011;39571;48.612;8.088;2022-11-11T09:09:51;5.25;;;4.75;;
53670;SDS011;39571;48.612;8.088;2022-11-11T09:12:16;5.53;;;4.80;;
53670;SDS011;39571;48.612;8.088;2022-11-11T09:14:42;7.03;;;5.45;;
53670;SDS011;39571;48.612;8.088;2022-11-11T09:17:07;7.57;;;6.07;;
53670;SDS011;39571;48.612;8.088;2022-11-11T09:19:33;6.43;;;5.57;;
53670;SDS011;39571;48.612;8.088;2022-11-11T09:21:58;6.45;;;5.13;;
53670;SDS011;39571;48.612;8.088;2022-11-11T09:24:23;5.60;;;5.10;;
53670;SDS011;39571;48.612;8.088;2022-11-11T09:26:49;5.93;;;5.18;;
53670;SDS011;39571;48.612;8.088;2022-11-11T09:29:15;7.53;;;6.10;;
53670;SDS011;39571;48.612;8.088;2022-11-11T09:31:41;12.15;;;9.82;;
53670;SDS011;39571;48.612;8.088;2022-11-11T09:34:07;13.63;;;11.48;;
53670;SDS011;39571;48.612;8.088;2022-11-11T09:36:32;21.85;;;16.35;;
53670;SDS011;39571;48.612;8.088;2022-11-11T09:38:58;12.70;;;11.40;;
53670;SDS011;39571;48.612;8.088;2022-11-11T09:41:28;11.45;;;10.15;;
53670;SDS011;39571;48.612;8.088;2022-11-11T09:44:02;10.45;;;8.63;;
53670;SDS011;39571;48.612;8.088;2022-11-11T09:46:35;8.57;;;7.68;;
53670;SDS011;39571;48.612;8.088;2022-11-11T09:57:39;8.55;;;7.28;;
53670;SDS011;39571;48.612;8.088;2022-11-11T10:03:29;10.50;;;9.32;;
53670;SDS011;39571;48.612;8.088;2022-11-11T10:08:59;11.00;;;9.75;;
53670;SDS011;39571;48.612;8.088;2022-11-11T10:26:52;14.10;;;11.90;;
53670;SDS011;39571;48.612;8.088;2022-11-11T10:29:18;12.98;;;11.43;;
53670;SDS011;39571;48.612;8.088;2022-11-11T10:31:46;12.88;;;11.52;;
53670;SDS011;39571;48.612;8.088;2022-11-11T10:34:21;13.07;;;11.68;;
53670;SDS011;39571;48.612;8.088;2022-11-11T10:36:48;14.32;;;11.52;;
53670;SDS011;39571;48.612;8.088;2022-11-11T10:40:04;13.38;;;11.98;;
53670;SDS011;39571;48.612;8.088;2022-11-11T10:42:14;12.18;;;10.90;;
53670;SDS011;39571;48.612;8.088;2022-11-11T10:44:41;13.02;;;11.57;;
53670;SDS011;39571;48.612;8.088;2022-11-11T10:49:53;12.80;;;11.23;;
53670;SDS011;39571;48.612;8.088;2022-11-11T10:52:25;12.18;;;10.85;;
53670;SDS011;39571;48.612;8.088;2022-11-11T10:55:01;12.00;;;10.63;;
53670;SDS011;39571;48.612;8.088;2022-11-11T10:57:39;13.52;;;11.25;;
53670;SDS011;39571;48.612;8.088;2022-11-11T11:00:10;11.40;;;10.30;;
53670;SDS011;39571;48.612;8.088;2022-11-11T11:02:48;11.50;;;10.30;;
53670;SDS011;39571;48.612;8.088;2022-11-11T11:08:33;11.18;;;10.07;;
53670;SDS011;39571;48.612;8.088;2022-11-11T11:13:51;11.05;;;9.95;;
53670;SDS011;39571;48.612;8.088;2022-11-11T11:16:21;11.52;;;9.40;;
53670;SDS011;39571;48.612;8.088;2022-11-11T11:21:54;9.30;;;8.25;;
53670;SDS011;39571;48.612;8.088;2022-11-11T11:24:30;9.13;;;8.23;;
53670;SDS011;39571;48.612;8.088;2022-11-11T11:27:01;9.57;;;8.60;;
53670;SDS011;39571;48.612;8.088;2022-11-11T11:32:12;9.40;;;8.15;;
53670;SDS011;39571;48.612;8.088;2022-11-11T11:34:54;8.43;;;7.65;;
53670;SDS011;39571;48.612;8.088;2022-11-11T11:37:21;9.18;;;8.27;;
53670;SDS011;39571;48.612;8.088;2022-11-11T11:39:49;9.98;;;8.93;;
53670;SDS011;39571;48.612;8.088;2022-11-11T11:42:34;10.30;;;8.38;;
53670;SDS011;39571;48.612;8.088;2022-11-11T11:50:45;9.30;;;8.27;;
53670;SDS011;39571;48.612;8.088;2022-11-11T11:55:53;9.32;;;8.43;;
53670;SDS011;39571;48.612;8.088;2022-11-11T11:58:32;9.63;;;8.63;;
53670;SDS011;39571;48.612;8.088;2022-11-11T12:01:10;10.80;;;9.75;;
53670;SDS011;39571;48.612;8.088;2022-11-11T12:03:51;11.23;;;9.88;;
53670;SDS011;39571;48.612;8.088;2022-11-11T12:28:00;13.80;;;12.40;;
53670;SDS011;39571;48.612;8.088;2022-11-11T12:30:50;13.00;;;11.63;;
53670;SDS011;39571;48.612;8.088;2022-11-11T12:39:39;13.55;;;12.15;;
53670;SDS011;39571;48.612;8.088;2022-11-11T12:45:21;12.07;;;10.77;;
53670;SDS011;39571;48.612;8.088;2022-11-11T12:47:55;13.95;;;12.05;;
53670;SDS011;39571;48.612;8.088;2022-11-11T12:50:49;12.98;;;11.60;;
53670;SDS011;39571;48.612;8.088;2022-11-11T13:01:37;13.15;;;11.77;;
53670;SDS011;39571;48.612;8.088;2022-11-11T13:14:43;11.85;;;10.65;;
53670;SDS011;39571;48.612;8.088;2022-11-11T13:26:53;13.55;;;10.63;;
53670;SDS011;39571;48.612;8.088;2022-11-11T13:37:18;11.98;;;10.75;;
53670;SDS011;39571;48.612;8.088;2022-11-11T13:52:20;12.52;;;11.23;;
